KISM/ISM METAR and TAF weather

Enter ICAO airport designator
Station Type Date Time Source
KISM METAR 2021/10/22 18:56 UTC NOAA

KISM 221856Z 12004KT 10SM CLR 30/19 A2999 RMK AO2 SLP154 T03000189 $


Station Type Date Time Source
KISM Decoded METAR 2021/10/22 18:56 UTC NOAA

Orlando, Kissimmee Municipal Airport, FL, United States (KISM) 28-17-23N 081-26-14W
Oct 22, 2021 - 02:56 PM EDT / 2021.10.22 1856 UTC
Wind: from the ESE (120 degrees) at 5 MPH (4 KT):0
Visibility: 10 mile(s):0
Sky conditions: clear
Temperature: 86.0 F (30.0 C)
Dew Point: 66.0 F (18.9 C)
Relative Humidity: 51%
Pressure (altimeter): 29.99 in. Hg (1015 hPa)
ob: KISM 221856Z 12004KT 10SM CLR 30/19 A2999 RMK AO2 SLP154 T03000189
cycle: 19

Station Type Date Time Source
KISM TAF 2021/10/22 18:42 UTC NOAA

TAF KISM 221739Z 2218/2318 VRB05KT P6SM SCT040 SCT250
FM231500 02006KT P6SM SCT040 SCT250

Example: see airport list